sensor_id;sensor_type;location;lat;lon;timestamp;P1;durP1;ratioP1;P2;durP2;ratioP2
56599;SDS011;51832;48.152;11.530;2023-11-19T00:02:46;4.43;;;3.03;;
56599;SDS011;51832;48.152;11.530;2023-11-19T00:07:47;2.63;;;2.20;;
56599;SDS011;51832;48.152;11.530;2023-11-19T00:12:48;2.70;;;2.08;;
56599;SDS011;51832;48.152;11.530;2023-11-19T00:17:49;2.63;;;1.95;;
56599;SDS011;51832;48.152;11.530;2023-11-19T00:22:50;2.35;;;1.90;;
56599;SDS011;51832;48.152;11.530;2023-11-19T00:27:53;3.13;;;1.88;;
56599;SDS011;51832;48.152;11.530;2023-11-19T00:32:53;2.10;;;1.85;;
56599;SDS011;51832;48.152;11.530;2023-11-19T00:37:54;2.20;;;2.00;;
56599;SDS011;51832;48.152;11.530;2023-11-19T00:42:55;3.30;;;1.90;;
56599;SDS011;51832;48.152;11.530;2023-11-19T00:47:55;3.28;;;1.77;;
56599;SDS011;51832;48.152;11.530;2023-11-19T00:52:56;2.70;;;1.70;;
56599;SDS011;51832;48.152;11.530;2023-11-19T00:57:56;2.38;;;1.65;;
56599;SDS011;51832;48.152;11.530;2023-11-19T01:02:56;2.25;;;1.85;;
56599;SDS011;51832;48.152;11.530;2023-11-19T01:07:57;3.30;;;1.70;;
56599;SDS011;51832;48.152;11.530;2023-11-19T01:12:57;2.38;;;1.77;;
56599;SDS011;51832;48.152;11.530;2023-11-19T01:17:58;2.60;;;1.70;;
56599;SDS011;51832;48.152;11.530;2023-11-19T01:22:58;2.55;;;1.58;;
56599;SDS011;51832;48.152;11.530;2023-11-19T01:27:58;1.98;;;1.38;;
56599;SDS011;51832;48.152;11.530;2023-11-19T01:32:59;2.08;;;1.38;;
56599;SDS011;51832;48.152;11.530;2023-11-19T01:38:00;2.15;;;1.60;;
56599;SDS011;51832;48.152;11.530;2023-11-19T01:43:00;1.63;;;1.52;;
56599;SDS011;51832;48.152;11.530;2023-11-19T01:48:02;2.05;;;1.40;;
56599;SDS011;51832;48.152;11.530;2023-11-19T01:53:06;2.75;;;1.83;;
56599;SDS011;51832;48.152;11.530;2023-11-19T01:58:07;3.28;;;1.42;;
56599;SDS011;51832;48.152;11.530;2023-11-19T02:03:08;1.92;;;1.60;;
56599;SDS011;51832;48.152;11.530;2023-11-19T02:08:08;2.97;;;1.33;;
56599;SDS011;51832;48.152;11.530;2023-11-19T02:13:09;2.10;;;1.50;;
56599;SDS011;51832;48.152;11.530;2023-11-19T02:23:25;2.30;;;1.58;;
56599;SDS011;51832;48.152;11.530;2023-11-19T02:28:27;1.92;;;1.20;;
56599;SDS011;51832;48.152;11.530;2023-11-19T02:33:28;1.27;;;1.02;;
56599;SDS011;51832;48.152;11.530;2023-11-19T02:38:29;1.40;;;1.20;;
56599;SDS011;51832;48.152;11.530;2023-11-19T02:43:31;1.52;;;1.00;;
56599;SDS011;51832;48.152;11.530;2023-11-19T02:48:35;6.55;;;3.30;;
56599;SDS011;51832;48.152;11.530;2023-11-19T02:53:35;1.67;;;0.75;;
56599;SDS011;51832;48.152;11.530;2023-11-19T02:58:39;0.68;;;0.68;;
56599;SDS011;51832;48.152;11.530;2023-11-19T03:03:40;0.95;;;0.77;;
56599;SDS011;51832;48.152;11.530;2023-11-19T03:08:41;1.00;;;0.85;;
56599;SDS011;51832;48.152;11.530;2023-11-19T03:13:42;1.33;;;0.63;;
56599;SDS011;51832;48.152;11.530;2023-11-19T03:18:43;0.70;;;0.70;;
56599;SDS011;51832;48.152;11.530;2023-11-19T03:23:43;1.10;;;1.00;;
56599;SDS011;51832;48.152;11.530;2023-11-19T03:28:44;0.82;;;0.82;;
56599;SDS011;51832;48.152;11.530;2023-11-19T03:33:44;2.03;;;1.00;;
56599;SDS011;51832;48.152;11.530;2023-11-19T03:38:45;0.70;;;0.60;;
56599;SDS011;51832;48.152;11.530;2023-11-19T03:43:46;0.75;;;0.52;;
56599;SDS011;51832;48.152;11.530;2023-11-19T03:48:47;1.33;;;0.70;;
56599;SDS011;51832;48.152;11.530;2023-11-19T03:53:49;1.15;;;0.60;;
56599;SDS011;51832;48.152;11.530;2023-11-19T03:58:49;0.97;;;0.80;;
56599;SDS011;51832;48.152;11.530;2023-11-19T04:03:49;0.50;;;0.50;;
56599;SDS011;51832;48.152;11.530;2023-11-19T04:08:50;0.67;;;0.50;;
56599;SDS011;51832;48.152;11.530;2023-11-19T04:13:50;0.75;;;0.50;;
56599;SDS011;51832;48.152;11.530;2023-11-19T04:18:51;0.70;;;0.60;;
56599;SDS011;51832;48.152;11.530;2023-11-19T04:23:51;0.43;;;0.40;;
56599;SDS011;51832;48.152;11.530;2023-11-19T04:28:52;0.93;;;0.60;;
56599;SDS011;51832;48.152;11.530;2023-11-19T04:33:52;0.82;;;0.60;;
56599;SDS011;51832;48.152;11.530;2023-11-19T04:38:54;1.13;;;0.70;;
56599;SDS011;51832;48.152;11.530;2023-11-19T04:43:55;0.98;;;0.50;;
56599;SDS011;51832;48.152;11.530;2023-11-19T04:48:56;1.27;;;0.80;;
56599;SDS011;51832;48.152;11.530;2023-11-19T04:53:56;0.40;;;0.40;;
56599;SDS011;51832;48.152;11.530;2023-11-19T04:58:56;0.60;;;0.60;;
56599;SDS011;51832;48.152;11.530;2023-11-19T05:03:57;2.60;;;1.05;;
56599;SDS011;51832;48.152;11.530;2023-11-19T05:09:00;0.80;;;0.63;;
56599;SDS011;51832;48.152;11.530;2023-11-19T05:14:04;0.52;;;0.52;;
56599;SDS011;51832;48.152;11.530;2023-11-19T05:19:05;0.70;;;0.70;;
56599;SDS011;51832;48.152;11.530;2023-11-19T05:24:05;0.57;;;0.50;;
56599;SDS011;51832;48.152;11.530;2023-11-19T05:29:06;0.75;;;0.68;;
56599;SDS011;51832;48.152;11.530;2023-11-19T05:34:06;0.60;;;0.60;;
56599;SDS011;51832;48.152;11.530;2023-11-19T05:39:07;0.60;;;0.60;;
56599;SDS011;51832;48.152;11.530;2023-11-19T05:44:07;0.70;;;0.63;;
56599;SDS011;51832;48.152;11.530;2023-11-19T05:49:11;0.60;;;0.50;;
56599;SDS011;51832;48.152;11.530;2023-11-19T05:54:12;0.60;;;0.60;;
56599;SDS011;51832;48.152;11.530;2023-11-19T05:59:13;0.57;;;0.57;;
56599;SDS011;51832;48.152;11.530;2023-11-19T06:04:17;0.50;;;0.50;;
56599;SDS011;51832;48.152;11.530;2023-11-19T06:09:18;1.60;;;0.60;;
56599;SDS011;51832;48.152;11.530;2023-11-19T06:14:18;1.15;;;0.80;;
56599;SDS011;51832;48.152;11.530;2023-11-19T06:19:19;0.45;;;0.43;;
56599;SDS011;51832;48.152;11.530;2023-11-19T06:24:19;0.90;;;0.60;;
56599;SDS011;51832;48.152;11.530;2023-11-19T06:29:20;0.70;;;0.50;;
56599;SDS011;51832;48.152;11.530;2023-11-19T06:34:20;1.20;;;0.50;;
56599;SDS011;51832;48.152;11.530;2023-11-19T06:39:20;0.50;;;0.50;;
56599;SDS011;51832;48.152;11.530;2023-11-19T06:44:21;0.70;;;0.50;;
56599;SDS011;51832;48.152;11.530;2023-11-19T06:49:21;0.43;;;0.43;;
56599;SDS011;51832;48.152;11.530;2023-11-19T06:54:22;0.52;;;0.50;;
56599;SDS011;51832;48.152;11.530;2023-11-19T06:59:22;0.35;;;0.35;;
56599;SDS011;51832;48.152;11.530;2023-11-19T07:04:23;0.60;;;0.60;;
56599;SDS011;51832;48.152;11.530;2023-11-19T07:09:23;0.50;;;0.50;;
56599;SDS011;51832;48.152;11.530;2023-11-19T07:14:23;0.50;;;0.50;;
56599;SDS011;51832;48.152;11.530;2023-11-19T07:19:24;0.30;;;0.30;;
56599;SDS011;51832;48.152;11.530;2023-11-19T07:24:24;1.13;;;0.50;;
56599;SDS011;51832;48.152;11.530;2023-11-19T07:29:25;0.50;;;0.43;;
56599;SDS011;51832;48.152;11.530;2023-11-19T07:34:26;0.63;;;0.32;;
56599;SDS011;51832;48.152;11.530;2023-11-19T07:39:28;0.85;;;0.50;;
56599;SDS011;51832;48.152;11.530;2023-11-19T07:44:29;0.30;;;0.30;;
56599;SDS011;51832;48.152;11.530;2023-11-19T07:49:29;0.97;;;0.40;;
56599;SDS011;51832;48.152;11.530;2023-11-19T07:54:30;1.80;;;0.50;;
56599;SDS011;51832;48.152;11.530;2023-11-19T07:59:31;0.40;;;0.40;;
56599;SDS011;51832;48.152;11.530;2023-11-19T08:04:31;0.40;;;0.40;;
56599;SDS011;51832;48.152;11.530;2023-11-19T08:09:32;1.20;;;0.30;;
56599;SDS011;51832;48.152;11.530;2023-11-19T08:14:33;0.35;;;0.30;;
56599;SDS011;51832;48.152;11.530;2023-11-19T08:19:33;0.30;;;0.30;;
56599;SDS011;51832;48.152;11.530;2023-11-19T08:24:33;0.60;;;0.40;;
56599;SDS011;51832;48.152;11.530;2023-11-19T08:29:34;0.57;;;0.38;;
56599;SDS011;51832;48.152;11.530;2023-11-19T08:34:34;0.40;;;0.40;;
56599;SDS011;51832;48.152;11.530;2023-11-19T08:39:35;0.85;;;0.50;;
56599;SDS011;51832;48.152;11.530;2023-11-19T08:44:37;0.77;;;0.50;;
56599;SDS011;51832;48.152;11.530;2023-11-19T08:49:41;1.63;;;0.85;;
56599;SDS011;51832;48.152;11.530;2023-11-19T08:54:44;0.55;;;0.50;;
56599;SDS011;51832;48.152;11.530;2023-11-19T08:59:45;0.40;;;0.40;;
56599;SDS011;51832;48.152;11.530;2023-11-19T09:04:45;0.50;;;0.50;;
56599;SDS011;51832;48.152;11.530;2023-11-19T09:09:46;0.40;;;0.40;;
56599;SDS011;51832;48.152;11.530;2023-11-19T09:14:46;0.40;;;0.40;;
56599;SDS011;51832;48.152;11.530;2023-11-19T09:19:47;0.70;;;0.50;;
56599;SDS011;51832;48.152;11.530;2023-11-19T09:24:47;0.80;;;0.80;;
56599;SDS011;51832;48.152;11.530;2023-11-19T09:29:48;0.77;;;0.50;;
56599;SDS011;51832;48.152;11.530;2023-11-19T09:34:50;0.77;;;0.60;;
56599;SDS011;51832;48.152;11.530;2023-11-19T09:39:50;1.00;;;0.40;;
56599;SDS011;51832;48.152;11.530;2023-11-19T09:44:50;1.60;;;1.30;;
56599;SDS011;51832;48.152;11.530;2023-11-19T09:49:51;0.70;;;0.60;;
56599;SDS011;51832;48.152;11.530;2023-11-19T09:54:52;0.50;;;0.50;;
56599;SDS011;51832;48.152;11.530;2023-11-19T09:59:53;0.70;;;0.60;;
56599;SDS011;51832;48.152;11.530;2023-11-19T10:04:55;1.02;;;0.60;;
56599;SDS011;51832;48.152;11.530;2023-11-19T10:09:55;1.15;;;0.50;;
56599;SDS011;51832;48.152;11.530;2023-11-19T10:14:56;0.95;;;0.60;;
56599;SDS011;51832;48.152;11.530;2023-11-19T10:20:00;0.47;;;0.47;;
56599;SDS011;51832;48.152;11.530;2023-11-19T10:25:01;2.95;;;1.15;;
56599;SDS011;51832;48.152;11.530;2023-11-19T10:30:01;1.37;;;0.60;;
56599;SDS011;51832;48.152;11.530;2023-11-19T10:35:05;0.88;;;0.70;;
56599;SDS011;51832;48.152;11.530;2023-11-19T10:40:06;1.27;;;0.57;;
56599;SDS011;51832;48.152;11.530;2023-11-19T10:45:22;0.82;;;0.52;;
56599;SDS011;51832;48.152;11.530;2023-11-19T10:50:29;0.40;;;0.40;;
56599;SDS011;51832;48.152;11.530;2023-11-19T11:00:37;0.40;;;0.40;;
56599;SDS011;51832;48.152;11.530;2023-11-19T11:05:39;0.40;;;0.40;;
56599;SDS011;51832;48.152;11.530;2023-11-19T11:10:58;1.30;;;0.50;;
56599;SDS011;51832;48.152;11.530;2023-11-19T11:16:00;0.60;;;0.50;;
56599;SDS011;51832;48.152;11.530;2023-11-19T11:21:02;0.98;;;0.50;;
56599;SDS011;51832;48.152;11.530;2023-11-19T11:47:17;0.50;;;0.50;;
56599;SDS011;51832;48.152;11.530;2023-11-19T11:52:17;0.80;;;0.47;;
56599;SDS011;51832;48.152;11.530;2023-11-19T11:57:18;1.65;;;1.27;;
56599;SDS011;51832;48.152;11.530;2023-11-19T12:02:19;0.57;;;0.47;;
56599;SDS011;51832;48.152;11.530;2023-11-19T12:07:22;0.52;;;0.40;;
56599;SDS011;51832;48.152;11.530;2023-11-19T12:12:26;0.40;;;0.40;;
56599;SDS011;51832;48.152;11.530;2023-11-19T12:22:51;2.22;;;0.40;;
56599;SDS011;51832;48.152;11.530;2023-11-19T12:27:52;0.40;;;0.30;;
56599;SDS011;51832;48.152;11.530;2023-11-19T12:32:54;0.57;;;0.50;;
56599;SDS011;51832;48.152;11.530;2023-11-19T12:37:54;0.40;;;0.40;;
56599;SDS011;51832;48.152;11.530;2023-11-19T12:42:55;1.00;;;0.50;;
56599;SDS011;51832;48.152;11.530;2023-11-19T12:48:05;0.50;;;0.50;;
56599;SDS011;51832;48.152;11.530;2023-11-19T12:53:06;1.08;;;0.50;;
56599;SDS011;51832;48.152;11.530;2023-11-19T12:58:06;0.77;;;0.70;;
56599;SDS011;51832;48.152;11.530;2023-11-19T13:03:07;0.93;;;0.70;;
56599;SDS011;51832;48.152;11.530;2023-11-19T13:08:08;2.05;;;1.58;;
56599;SDS011;51832;48.152;11.530;2023-11-19T13:13:09;1.10;;;0.50;;
56599;SDS011;51832;48.152;11.530;2023-11-19T13:18:10;0.50;;;0.50;;
56599;SDS011;51832;48.152;11.530;2023-11-19T13:23:11;0.55;;;0.55;;
56599;SDS011;51832;48.152;11.530;2023-11-19T13:28:11;0.60;;;0.60;;
56599;SDS011;51832;48.152;11.530;2023-11-19T13:33:11;2.10;;;0.70;;
56599;SDS011;51832;48.152;11.530;2023-11-19T13:38:13;0.40;;;0.40;;
56599;SDS011;51832;48.152;11.530;2023-11-19T13:43:13;0.50;;;0.50;;
56599;SDS011;51832;48.152;11.530;2023-11-19T13:48:13;0.60;;;0.50;;
56599;SDS011;51832;48.152;11.530;2023-11-19T13:53:14;0.70;;;0.70;;
56599;SDS011;51832;48.152;11.530;2023-11-19T13:58:14;1.55;;;0.60;;
56599;SDS011;51832;48.152;11.530;2023-11-19T14:03:15;0.77;;;0.60;;
56599;SDS011;51832;48.152;11.530;2023-11-19T14:08:16;1.30;;;0.60;;
56599;SDS011;51832;48.152;11.530;2023-11-19T14:13:16;1.00;;;0.60;;
56599;SDS011;51832;48.152;11.530;2023-11-19T14:18:17;1.40;;;0.82;;
56599;SDS011;51832;48.152;11.530;2023-11-19T14:23:18;1.00;;;0.50;;
56599;SDS011;51832;48.152;11.530;2023-11-19T14:28:18;0.40;;;0.40;;
56599;SDS011;51832;48.152;11.530;2023-11-19T14:33:19;0.60;;;0.50;;
56599;SDS011;51832;48.152;11.530;2023-11-19T14:38:19;0.70;;;0.60;;
56599;SDS011;51832;48.152;11.530;2023-11-19T14:43:20;0.60;;;0.57;;
56599;SDS011;51832;48.152;11.530;2023-11-19T14:48:20;1.90;;;0.60;;
56599;SDS011;51832;48.152;11.530;2023-11-19T14:53:21;0.70;;;0.70;;
56599;SDS011;51832;48.152;11.530;2023-11-19T14:58:22;1.58;;;0.80;;
56599;SDS011;51832;48.152;11.530;2023-11-19T15:03:22;0.43;;;0.40;;
56599;SDS011;51832;48.152;11.530;2023-11-19T15:08:23;0.95;;;0.68;;
56599;SDS011;51832;48.152;11.530;2023-11-19T15:13:24;0.60;;;0.60;;
56599;SDS011;51832;48.152;11.530;2023-11-19T15:18:24;0.65;;;0.50;;
56599;SDS011;51832;48.152;11.530;2023-11-19T15:23:24;1.02;;;0.73;;
56599;SDS011;51832;48.152;11.530;2023-11-19T15:28:25;0.80;;;0.70;;
56599;SDS011;51832;48.152;11.530;2023-11-19T15:33:25;0.50;;;0.50;;
56599;SDS011;51832;48.152;11.530;2023-11-19T15:38:26;0.60;;;0.60;;
56599;SDS011;51832;48.152;11.530;2023-11-19T15:43:26;0.80;;;0.80;;
56599;SDS011;51832;48.152;11.530;2023-11-19T15:48:26;0.90;;;0.80;;
56599;SDS011;51832;48.152;11.530;2023-11-19T15:53:27;0.90;;;0.73;;
56599;SDS011;51832;48.152;11.530;2023-11-19T15:58:27;0.63;;;0.63;;
56599;SDS011;51832;48.152;11.530;2023-11-19T16:03:28;0.80;;;0.80;;
56599;SDS011;51832;48.152;11.530;2023-11-19T16:08:30;0.60;;;0.60;;
56599;SDS011;51832;48.152;11.530;2023-11-19T16:13:30;1.10;;;0.85;;
56599;SDS011;51832;48.152;11.530;2023-11-19T16:18:30;1.63;;;0.77;;
56599;SDS011;51832;48.152;11.530;2023-11-19T16:23:32;1.85;;;1.00;;
56599;SDS011;51832;48.152;11.530;2023-11-19T16:28:32;3.75;;;1.85;;
56599;SDS011;51832;48.152;11.530;2023-11-19T16:33:35;1.00;;;0.80;;
56599;SDS011;51832;48.152;11.530;2023-11-19T16:38:35;1.85;;;0.90;;
56599;SDS011;51832;48.152;11.530;2023-11-19T16:43:35;1.23;;;0.60;;
56599;SDS011;51832;48.152;11.530;2023-11-19T16:48:36;1.83;;;0.70;;
56599;SDS011;51832;48.152;11.530;2023-11-19T16:53:36;0.68;;;0.60;;
56599;SDS011;51832;48.152;11.530;2023-11-19T16:58:37;0.80;;;0.60;;
56599;SDS011;51832;48.152;11.530;2023-11-19T17:03:37;0.90;;;0.75;;
56599;SDS011;51832;48.152;11.530;2023-11-19T17:08:38;1.08;;;0.88;;
56599;SDS011;51832;48.152;11.530;2023-11-19T17:13:38;1.52;;;0.80;;
56599;SDS011;51832;48.152;11.530;2023-11-19T17:18:39;1.48;;;0.95;;
56599;SDS011;51832;48.152;11.530;2023-11-19T17:23:39;1.58;;;0.75;;
56599;SDS011;51832;48.152;11.530;2023-11-19T17:28:40;1.10;;;0.60;;
56599;SDS011;51832;48.152;11.530;2023-11-19T17:33:41;1.08;;;0.90;;
56599;SDS011;51832;48.152;11.530;2023-11-19T17:38:41;1.58;;;0.70;;
56599;SDS011;51832;48.152;11.530;2023-11-19T17:43:42;1.67;;;0.82;;
56599;SDS011;51832;48.152;11.530;2023-11-19T17:48:43;1.58;;;1.00;;
56599;SDS011;51832;48.152;11.530;2023-11-19T17:53:43;4.33;;;1.20;;
56599;SDS011;51832;48.152;11.530;2023-11-19T17:58:43;0.77;;;0.70;;
56599;SDS011;51832;48.152;11.530;2023-11-19T18:03:44;2.60;;;0.88;;
56599;SDS011;51832;48.152;11.530;2023-11-19T18:08:44;1.48;;;0.80;;
56599;SDS011;51832;48.152;11.530;2023-11-19T18:13:46;2.05;;;1.33;;
56599;SDS011;51832;48.152;11.530;2023-11-19T18:18:47;1.85;;;0.90;;
56599;SDS011;51832;48.152;11.530;2023-11-19T18:23:47;2.33;;;1.27;;
56599;SDS011;51832;48.152;11.530;2023-11-19T18:28:47;1.27;;;1.00;;
56599;SDS011;51832;48.152;11.530;2023-11-19T18:33:48;2.70;;;0.80;;
56599;SDS011;51832;48.152;11.530;2023-11-19T18:38:49;1.60;;;1.00;;
56599;SDS011;51832;48.152;11.530;2023-11-19T18:43:49;1.30;;;0.88;;
56599;SDS011;51832;48.152;11.530;2023-11-19T18:48:50;4.32;;;1.10;;
56599;SDS011;51832;48.152;11.530;2023-11-19T18:53:52;4.20;;;1.17;;
56599;SDS011;51832;48.152;11.530;2023-11-19T18:58:52;1.23;;;0.90;;
56599;SDS011;51832;48.152;11.530;2023-11-19T19:03:52;2.80;;;1.20;;
56599;SDS011;51832;48.152;11.530;2023-11-19T19:08:53;1.42;;;1.00;;
56599;SDS011;51832;48.152;11.530;2023-11-19T19:13:53;2.30;;;0.90;;
56599;SDS011;51832;48.152;11.530;2023-11-19T19:18:54;1.02;;;0.80;;
56599;SDS011;51832;48.152;11.530;2023-11-19T19:23:55;1.98;;;1.00;;
56599;SDS011;51832;48.152;11.530;2023-11-19T19:28:56;0.90;;;0.88;;
56599;SDS011;51832;48.152;11.530;2023-11-19T19:33:56;1.13;;;0.80;;
56599;SDS011;51832;48.152;11.530;2023-11-19T19:38:59;1.08;;;0.80;;
56599;SDS011;51832;48.152;11.530;2023-11-19T19:44:00;1.55;;;0.73;;
56599;SDS011;51832;48.152;11.530;2023-11-19T19:49:00;1.80;;;1.10;;
56599;SDS011;51832;48.152;11.530;2023-11-19T19:54:01;3.05;;;1.45;;
56599;SDS011;51832;48.152;11.530;2023-11-19T19:59:01;1.80;;;1.25;;
56599;SDS011;51832;48.152;11.530;2023-11-19T20:04:03;1.00;;;0.90;;
56599;SDS011;51832;48.152;11.530;2023-11-19T20:09:04;2.33;;;1.02;;
56599;SDS011;51832;48.152;11.530;2023-11-19T20:14:05;2.20;;;1.20;;
56599;SDS011;51832;48.152;11.530;2023-11-19T20:19:05;3.00;;;1.20;;
56599;SDS011;51832;48.152;11.530;2023-11-19T20:24:06;1.10;;;0.90;;
56599;SDS011;51832;48.152;11.530;2023-11-19T20:29:07;2.00;;;1.10;;
56599;SDS011;51832;48.152;11.530;2023-11-19T20:34:08;1.50;;;0.80;;
56599;SDS011;51832;48.152;11.530;2023-11-19T20:39:09;1.17;;;0.80;;
56599;SDS011;51832;48.152;11.530;2023-11-19T20:44:15;0.98;;;0.93;;
56599;SDS011;51832;48.152;11.530;2023-11-19T20:49:18;1.20;;;0.68;;
56599;SDS011;51832;48.152;11.530;2023-11-19T20:54:20;1.10;;;1.00;;
56599;SDS011;51832;48.152;11.530;2023-11-19T20:59:21;1.00;;;0.90;;
56599;SDS011;51832;48.152;11.530;2023-11-19T21:04:21;1.23;;;0.95;;
56599;SDS011;51832;48.152;11.530;2023-11-19T21:09:22;1.17;;;0.80;;
56599;SDS011;51832;48.152;11.530;2023-11-19T21:14:22;2.75;;;1.52;;
56599;SDS011;51832;48.152;11.530;2023-11-19T21:19:24;2.80;;;0.80;;
56599;SDS011;51832;48.152;11.530;2023-11-19T21:24:24;2.95;;;0.80;;
56599;SDS011;51832;48.152;11.530;2023-11-19T21:29:25;0.60;;;0.60;;
56599;SDS011;51832;48.152;11.530;2023-11-19T21:34:25;0.55;;;0.52;;
56599;SDS011;51832;48.152;11.530;2023-11-19T21:39:26;1.08;;;0.70;;
56599;SDS011;51832;48.152;11.530;2023-11-19T21:44:26;1.23;;;0.50;;
56599;SDS011;51832;48.152;11.530;2023-11-19T21:49:27;1.13;;;0.60;;
56599;SDS011;51832;48.152;11.530;2023-11-19T21:54:27;1.67;;;0.90;;
56599;SDS011;51832;48.152;11.530;2023-11-19T21:59:27;0.65;;;0.60;;
56599;SDS011;51832;48.152;11.530;2023-11-19T22:04:28;0.60;;;0.60;;
56599;SDS011;51832;48.152;11.530;2023-11-19T22:09:28;2.13;;;0.80;;
56599;SDS011;51832;48.152;11.530;2023-11-19T22:14:29;0.77;;;0.77;;
56599;SDS011;51832;48.152;11.530;2023-11-19T22:19:29;1.13;;;0.80;;
56599;SDS011;51832;48.152;11.530;2023-11-19T22:24:30;0.50;;;0.50;;
56599;SDS011;51832;48.152;11.530;2023-11-19T22:29:30;0.75;;;0.50;;
56599;SDS011;51832;48.152;11.530;2023-11-19T22:34:32;0.90;;;0.60;;
56599;SDS011;51832;48.152;11.530;2023-11-19T22:39:33;0.57;;;0.57;;
56599;SDS011;51832;48.152;11.530;2023-11-19T22:44:33;0.70;;;0.70;;
56599;SDS011;51832;48.152;11.530;2023-11-19T22:49:34;0.60;;;0.40;;
56599;SDS011;51832;48.152;11.530;2023-11-19T22:54:34;0.65;;;0.60;;
56599;SDS011;51832;48.152;11.530;2023-11-19T22:59:35;0.50;;;0.50;;
56599;SDS011;51832;48.152;11.530;2023-11-19T23:04:35;0.80;;;0.60;;
56599;SDS011;51832;48.152;11.530;2023-11-19T23:09:35;0.77;;;0.40;;
56599;SDS011;51832;48.152;11.530;2023-11-19T23:14:38;0.70;;;0.55;;
56599;SDS011;51832;48.152;11.530;2023-11-19T23:19:39;0.98;;;0.70;;
56599;SDS011;51832;48.152;11.530;2023-11-19T23:24:39;0.93;;;0.63;;
56599;SDS011;51832;48.152;11.530;2023-11-19T23:29:40;0.57;;;0.57;;
56599;SDS011;51832;48.152;11.530;2023-11-19T23:34:40;0.52;;;0.52;;
56599;SDS011;51832;48.152;11.530;2023-11-19T23:39:42;0.63;;;0.60;;
56599;SDS011;51832;48.152;11.530;2023-11-19T23:44:43;1.80;;;0.82;;
56599;SDS011;51832;48.152;11.530;2023-11-19T23:49:43;1.05;;;0.60;;
56599;SDS011;51832;48.152;11.530;2023-11-19T23:54:44;0.50;;;0.50;;
56599;SDS011;51832;48.152;11.530;2023-11-19T23:59:44;0.68;;;0.68;;
